Time;durP1;ratioP1;P1;durP2;ratioP2;P2;SDS_P1;SDS_P2;PMS_P1;PMS_P2;Temp;Humidity;BMP_temperature;BMP_pressure;BME280_temperature;BME280_humidity;BME280_pressure;Samples;Min_cycle;Max_cycle;Signal;HPM_P1;HPM_P2
2021/10/10 21:59:03;;;;;;;37.63;18.23;;;5.50;99.90;;;;;;4451850;32;20421;-69
2021/10/10 22:01:31;;;;;;;33.77;16.53;;;5.50;99.90;;;;;;4453720;32;20386;-66
2021/10/10 22:03:59;;;;;;;35.67;16.23;;;5.50;99.90;;;;;;4452499;32;20160;-67
2021/10/10 22:06:27;;;;;;;30.80;16.27;;;5.60;99.90;;;;;;4453007;32;20138;-66
2021/10/10 22:08:54;;;;;;;35.37;16.87;;;5.60;99.90;;;;;;4452163;32;20159;-65
2021/10/10 22:11:21;;;;;;;32.13;16.93;;;5.60;99.90;;;;;;4452127;32;20129;-66
2021/10/10 22:13:52;;;;;;;39.50;16.70;;;5.60;99.90;;;;;;4453537;32;20130;-66
2021/10/10 22:16:20;;;;;;;36.57;17.13;;;5.60;99.90;;;;;;4453521;32;20206;-65
2021/10/10 22:18:47;;;;;;;35.33;17.03;;;5.50;99.90;;;;;;4452077;32;20433;-66
2021/10/10 22:21:18;;;;;;;33.80;16.67;;;5.60;99.90;;;;;;4452032;32;20137;-66
2021/10/10 22:23:49;;;;;;;37.63;16.37;;;5.50;99.90;;;;;;4453833;32;20133;-66
2021/10/10 22:31:34;;;;;;;31.83;15.87;;;5.40;99.90;;;;;;4451825;32;20140;-65
2021/10/10 22:34:01;;;;;;;32.03;15.53;;;5.40;99.90;;;;;;4451863;32;20153;-66
2021/10/10 22:36:28;;;;;;;32.17;15.67;;;5.40;99.90;;;;;;4451839;32;20137;-65
2021/10/10 22:38:55;;;;;;;33.80;16.57;;;5.40;99.90;;;;;;4451604;32;20127;-63
2021/10/10 22:41:22;;;;;;;33.47;16.40;;;5.40;99.90;;;;;;4451694;32;20163;-65
2021/10/10 22:43:49;;;;;;;35.60;16.60;;;5.40;99.90;;;;;;4452274;32;20131;-64
2021/10/10 22:46:15;;;;;;;34.80;16.97;;;5.30;99.90;;;;;;4451657;32;20139;-64
2021/10/10 22:48:42;;;;;;;35.73;16.57;;;5.20;99.90;;;;;;4451228;32;20167;-64
2021/10/10 22:51:14;;;;;;;34.87;16.67;;;5.20;99.90;;;;;;4451731;32;20189;-64
2021/10/10 22:53:42;;;;;;;38.87;16.67;;;5.10;99.90;;;;;;4451453;32;20440;-65
2021/10/10 22:56:09;;;;;;;37.07;16.70;;;5.20;99.90;;;;;;4451502;32;20213;-65
2021/10/10 22:58:36;;;;;;;32.93;16.03;;;5.10;99.90;;;;;;4447152;32;20203;-65
2021/10/10 23:02:37;;;;;;;35.90;16.70;;;5.10;99.90;;;;;;4484597;31;20195;-63
2021/10/10 23:05:04;;;;;;;33.17;17.27;;;5.10;99.90;;;;;;4469986;32;20124;-64
2021/10/10 23:07:31;;;;;;;33.73;16.93;;;5.10;99.90;;;;;;4469565;32;20205;-65
2021/10/10 23:09:58;;;;;;;33.73;16.90;;;5.10;99.90;;;;;;4467719;32;20161;-63
2021/10/10 23:12:24;;;;;;;36.97;17.80;;;5.00;99.90;;;;;;4467660;32;20135;-64
2021/10/10 23:14:51;;;;;;;35.37;16.83;;;4.90;99.90;;;;;;4467676;32;20130;-64
2021/10/10 23:17:18;;;;;;;38.67;17.60;;;4.90;99.90;;;;;;4469390;32;20162;-64
2021/10/10 23:19:45;;;;;;;38.57;17.93;;;4.90;99.90;;;;;;4468531;32;20298;-64
2021/10/10 23:22:12;;;;;;;38.27;17.73;;;4.90;99.90;;;;;;4469219;32;20149;-64
2021/10/10 23:24:39;;;;;;;43.20;19.27;;;4.80;99.90;;;;;;4467612;32;20183;-64
2021/10/10 23:27:05;;;;;;;34.10;17.33;;;4.70;99.90;;;;;;4469486;32;20129;-64
2021/10/10 23:29:32;;;;;;;36.33;17.43;;;4.70;99.90;;;;;;4469087;32;20129;-64
2021/10/10 23:31:59;;;;;;;36.93;17.60;;;4.70;99.90;;;;;;4469300;32;20198;-64
2021/10/10 23:34:26;;;;;;;40.63;18.13;;;4.70;99.90;;;;;;4467424;32;20136;-64
2021/10/10 23:36:52;;;;;;;42.37;17.87;;;4.60;99.90;;;;;;4468966;32;20419;-64
2021/10/10 23:39:19;;;;;;;42.00;18.23;;;4.60;99.90;;;;;;4468973;32;20407;-65
2021/10/10 23:41:46;;;;;;;35.87;17.70;;;4.50;99.90;;;;;;4468923;32;20132;-64
2021/10/10 23:44:12;;;;;;;40.13;18.57;;;4.50;99.90;;;;;;4468469;32;20179;-64
2021/10/10 23:46:39;;;;;;;40.53;17.90;;;4.60;99.90;;;;;;4467269;32;20133;-63
2021/10/10 23:49:06;;;;;;;37.13;17.90;;;4.60;99.90;;;;;;4469072;32;20135;-63
2021/10/10 23:51:33;;;;;;;40.33;18.83;;;4.50;99.90;;;;;;4466128;32;20130;-64
2021/10/10 23:53:59;;;;;;;37.03;18.83;;;4.50;99.90;;;;;;4468834;32;20133;-65
2021/10/10 23:56:26;;;;;;;37.43;18.63;;;4.50;99.90;;;;;;4468985;32;20145;-64
2021/10/10 23:58:53;;;;;;;37.83;18.67;;;4.50;99.90;;;;;;4467195;32;20452;-64
